Time;durP1;ratioP1;P1;durP2;ratioP2;P2;SDS_P1;SDS_P2;PMS_P1;PMS_P2;Temp;Humidity;BMP_temperature;BMP_pressure;BME280_temperature;BME280_humidity;BME280_pressure;Samples;Min_cycle;Max_cycle;Signal;HPM_P1;HPM_P2
2023/10/29 04:58:13;;;;;;;3.35;0.70;;;;;;;;;;5075636;28;20401;-85
2023/10/29 05:00:38;;;;;;;0.20;0.20;;;;;;;;;;5074651;28;20081;-84
2023/10/29 05:03:04;;;;;;;0.20;0.20;;;;;;;;;;5078373;28;20107;-85
2023/10/29 05:05:30;;;;;;;0.43;0.43;;;;;;;;;;5077165;28;20048;-85
2023/10/29 05:07:56;;;;;;;0.10;0.10;;;;;;;;;;5071137;28;20020;-85
2023/10/29 05:10:24;;;;;;;1.13;0.95;;;;;;;;;;5075279;28;20066;-85
2023/10/29 05:12:50;;;;;;;0.38;0.38;;;;;;;;;;5076759;28;20081;-84
2023/10/29 05:15:16;;;;;;;1.35;0.75;;;;;;;;;;5081317;28;20032;-83
2023/10/29 05:17:41;;;;;;;0.50;0.50;;;;;;;;;;5077377;28;20078;-85
2023/10/29 05:20:09;;;;;;;0.30;0.30;;;;;;;;;;5075000;28;20438;-84
2023/10/29 05:22:34;;;;;;;1.00;0.60;;;;;;;;;;5076269;28;20027;-84
2023/10/29 05:25:02;;;;;;;1.08;0.50;;;;;;;;;;5076743;28;20468;-84
2023/10/29 05:27:27;;;;;;;6.13;1.45;;;;;;;;;;5081066;28;20426;-85
2023/10/29 05:29:53;;;;;;;0.90;0.70;;;;;;;;;;5082213;28;20033;-84
2023/10/29 05:32:18;;;;;;;0.95;0.70;;;;;;;;;;5076885;28;20024;-83
2023/10/29 05:34:44;;;;;;;3.15;1.05;;;;;;;;;;5075650;28;20031;-84
2023/10/29 05:37:09;;;;;;;0.80;0.65;;;;;;;;;;5076091;28;20020;-84
2023/10/29 05:39:35;;;;;;;3.00;0.85;;;;;;;;;;5073508;28;20027;-85
2023/10/29 05:42:01;;;;;;;0.35;0.35;;;;;;;;;;5079166;28;20036;-84
2023/10/29 05:44:27;;;;;;;0.43;0.43;;;;;;;;;;5074980;28;20024;-84
2023/10/29 05:46:52;;;;;;;0.55;0.40;;;;;;;;;;5077896;28;20689;-83
2023/10/29 05:49:17;;;;;;;0.47;0.35;;;;;;;;;;5070907;28;20489;-83
2023/10/29 05:51:43;;;;;;;0.10;0.10;;;;;;;;;;5073041;28;20052;-83
2023/10/29 05:54:09;;;;;;;0.68;0.32;;;;;;;;;;5069673;28;20033;-83
2023/10/29 05:56:34;;;;;;;0.77;0.60;;;;;;;;;;5067293;28;20428;-83
2023/10/29 05:58:59;;;;;;;0.20;0.20;;;;;;;;;;5069614;28;20032;-85
2023/10/29 06:01:25;;;;;;;0.20;0.20;;;;;;;;;;5071945;28;20028;-82
2023/10/29 06:03:50;;;;;;;0.30;0.30;;;;;;;;;;5068280;28;20035;-82
2023/10/29 06:06:16;;;;;;;0.20;0.20;;;;;;;;;;5072283;28;20021;-82
2023/10/29 06:08:41;;;;;;;0.30;0.30;;;;;;;;;;5065452;28;20040;-83
2023/10/29 06:11:06;;;;;;;0.30;0.30;;;;;;;;;;5057499;28;20037;-83
2023/10/29 06:13:32;;;;;;;0.40;0.40;;;;;;;;;;5063495;28;20037;-84
2023/10/29 06:15:57;;;;;;;0.45;0.40;;;;;;;;;;5062490;28;20024;-83
2023/10/29 06:18:22;;;;;;;0.38;0.38;;;;;;;;;;5058658;28;20078;-83
2023/10/29 06:20:48;;;;;;;0.52;0.40;;;;;;;;;;5051551;28;20033;-86
2023/10/29 06:23:13;;;;;;;0.90;0.45;;;;;;;;;;5053128;28;20366;-85
2023/10/29 06:25:39;;;;;;;0.30;0.30;;;;;;;;;;5054499;28;20024;-85
2023/10/29 06:28:04;;;;;;;1.10;0.60;;;;;;;;;;5056562;28;20380;-86
2023/10/29 06:30:30;;;;;;;2.53;1.05;;;;;;;;;;5063195;28;20564;-87
2023/10/29 06:32:59;;;;;;;1.88;1.08;;;;;;;;;;5062640;28;20078;-85
2023/10/29 06:35:25;;;;;;;4.47;1.23;;;;;;;;;;5055172;28;20497;-85
2023/10/29 06:37:50;;;;;;;1.90;1.00;;;;;;;;;;5053774;28;20056;-85
2023/10/29 06:40:16;;;;;;;6.53;1.15;;;;;;;;;;5060186;28;20043;-87
2023/10/29 06:42:42;;;;;;;1.38;1.15;;;;;;;;;;5056134;28;20033;-85
2023/10/29 06:45:09;;;;;;;2.13;1.00;;;;;;;;;;5060988;28;20074;-85
2023/10/29 06:47:35;;;;;;;0.73;0.70;;;;;;;;;;5062177;28;20017;-86
2023/10/29 06:50:01;;;;;;;1.73;0.98;;;;;;;;;;5057124;28;20033;-86
2023/10/29 06:52:26;;;;;;;1.55;1.02;;;;;;;;;;5058699;28;20025;-86
2023/10/29 06:54:52;;;;;;;0.55;0.52;;;;;;;;;;5054698;28;20132;-85
2023/10/29 06:57:18;;;;;;;1.40;1.17;;;;;;;;;;5057929;28;20068;-86
2023/10/29 06:59:44;;;;;;;0.98;0.88;;;;;;;;;;5055780;28;20449;-85
2023/10/29 07:02:09;;;;;;;1.58;0.85;;;;;;;;;;5059578;28;20025;-86
2023/10/29 07:04:35;;;;;;;2.63;1.27;;;;;;;;;;5063702;28;20021;-84
2023/10/29 07:07:01;;;;;;;0.93;0.85;;;;;;;;;;5067253;28;20504;-86
2023/10/29 07:09:26;;;;;;;2.28;1.33;;;;;;;;;;5068555;28;20471;-84
2023/10/29 07:11:52;;;;;;;0.98;0.88;;;;;;;;;;5062068;28;21772;-86
2023/10/29 07:14:18;;;;;;;1.38;0.80;;;;;;;;;;5060306;28;20403;-85
2023/10/29 07:16:46;;;;;;;6.20;0.77;;;;;;;;;;5062939;28;20025;-85
2023/10/29 07:19:12;;;;;;;0.93;0.55;;;;;;;;;;5065639;28;20477;-86
2023/10/29 07:21:38;;;;;;;0.95;0.60;;;;;;;;;;5069006;28;20024;-84
2023/10/29 07:24:05;;;;;;;1.98;0.82;;;;;;;;;;5062301;28;20028;-84
2023/10/29 07:26:32;;;;;;;2.70;1.27;;;;;;;;;;5064654;28;20021;-84
2023/10/29 07:28:57;;;;;;;0.82;0.63;;;;;;;;;;5068042;28;20035;-84
2023/10/29 07:31:23;;;;;;;0.40;0.35;;;;;;;;;;5065970;28;20465;-86
2023/10/29 07:33:48;;;;;;;1.58;0.32;;;;;;;;;;5066305;28;20025;-84
2023/10/29 07:36:13;;;;;;;1.73;1.02;;;;;;;;;;5067781;28;20024;-85
2023/10/29 07:38:39;;;;;;;0.52;0.38;;;;;;;;;;5068356;28;20053;-83
2023/10/29 07:41:04;;;;;;;0.60;0.60;;;;;;;;;;5070784;28;20027;-84
2023/10/29 07:43:30;;;;;;;2.72;1.45;;;;;;;;;;5068395;28;20362;-84
2023/10/29 07:46:05;;;;;;;1.45;0.57;;;;;;;;;;5061877;28;20035;-85
2023/10/29 07:48:30;;;;;;;1.02;0.70;;;;;;;;;;5066287;28;20036;-84
2023/10/29 07:50:56;;;;;;;1.08;0.73;;;;;;;;;;5063022;28;20024;-84
2023/10/29 07:53:22;;;;;;;3.80;0.50;;;;;;;;;;5068991;28;20439;-83
2023/10/29 07:55:47;;;;;;;9.43;1.17;;;;;;;;;;5066316;28;20032;-86
2023/10/29 07:58:13;;;;;;;0.60;0.60;;;;;;;;;;5066315;28;20035;-82
2023/10/29 08:00:38;;;;;;;0.50;0.50;;;;;;;;;;5075180;28;20069;-82
2023/10/29 08:03:04;;;;;;;1.55;1.45;;;;;;;;;;5067267;28;20025;-83
2023/10/29 08:05:29;;;;;;;0.60;0.60;;;;;;;;;;5067522;28;20575;-85
2023/10/29 08:07:55;;;;;;;0.77;0.57;;;;;;;;;;5066731;28;20048;-83
2023/10/29 08:10:20;;;;;;;1.20;1.10;;;;;;;;;;5066199;28;20032;-85
2023/10/29 08:12:46;;;;;;;3.05;0.80;;;;;;;;;;5071361;28;20024;-83
2023/10/29 08:15:12;;;;;;;4.70;1.10;;;;;;;;;;5065276;28;20052;-85
2023/10/29 08:17:37;;;;;;;1.45;0.85;;;;;;;;;;5073358;28;20073;-85
2023/10/29 08:20:03;;;;;;;1.40;0.70;;;;;;;;;;5061923;28;20024;-84
2023/10/29 08:22:29;;;;;;;1.08;0.70;;;;;;;;;;5064995;28;20036;-85
2023/10/29 08:24:56;;;;;;;1.08;0.60;;;;;;;;;;5066386;28;20031;-85
2023/10/29 08:27:21;;;;;;;1.40;1.02;;;;;;;;;;5066931;28;20032;-84
2023/10/29 08:29:48;;;;;;;0.52;0.52;;;;;;;;;;5067972;28;20036;-84
2023/10/29 08:32:13;;;;;;;0.75;0.75;;;;;;;;;;5066770;28;20025;-85
2023/10/29 08:34:39;;;;;;;4.72;1.15;;;;;;;;;;5058578;28;20040;-83
2023/10/29 08:37:04;;;;;;;4.32;1.30;;;;;;;;;;5059755;28;20039;-84
2023/10/29 08:39:31;;;;;;;10.93;1.70;;;;;;;;;;5057656;28;20461;-84
2023/10/29 08:41:57;;;;;;;0.77;0.70;;;;;;;;;;5063093;28;20048;-86
2023/10/29 08:44:22;;;;;;;0.95;0.82;;;;;;;;;;5064563;28;20027;-83
2023/10/29 08:46:51;;;;;;;1.65;1.30;;;;;;;;;;5065186;28;20025;-85
2023/10/29 08:49:16;;;;;;;6.05;1.90;;;;;;;;;;5063983;28;20029;-83
2023/10/29 08:51:41;;;;;;;4.18;1.05;;;;;;;;;;5064131;28;20027;-84
2023/10/29 08:54:08;;;;;;;1.63;1.05;;;;;;;;;;5064797;28;21744;-83
2023/10/29 08:56:35;;;;;;;8.68;4.40;;;;;;;;;;5064800;28;20048;-84
2023/10/29 08:59:04;;;;;;;0.77;0.77;;;;;;;;;;5061084;28;20042;-83
2023/10/29 09:01:30;;;;;;;4.85;1.20;;;;;;;;;;5062474;28;20028;-87
2023/10/29 09:03:56;;;;;;;1.88;0.80;;;;;;;;;;5063242;28;20039;-83
2023/10/29 09:06:22;;;;;;;2.55;1.23;;;;;;;;;;5065923;28;20021;-83
2023/10/29 09:08:47;;;;;;;1.65;1.38;;;;;;;;;;5066178;28;20025;-84
2023/10/29 09:11:14;;;;;;;3.80;1.27;;;;;;;;;;5068468;28;20021;-85
2023/10/29 09:13:39;;;;;;;2.15;1.23;;;;;;;;;;5064059;28;20113;-85
2023/10/29 09:16:05;;;;;;;2.60;1.10;;;;;;;;;;5067103;28;20024;-84
2023/10/29 09:18:31;;;;;;;1.83;0.98;;;;;;;;;;5067197;28;20389;-84
2023/10/29 09:20:56;;;;;;;3.75;1.75;;;;;;;;;;5068193;28;20028;-84
2023/10/29 09:23:23;;;;;;;0.52;0.43;;;;;;;;;;5063309;28;20028;-83
2023/10/29 09:25:48;;;;;;;1.15;0.73;;;;;;;;;;5059265;28;20475;-83
2023/10/29 09:28:14;;;;;;;3.55;1.13;;;;;;;;;;5074914;28;20056;-84
2023/10/29 09:30:39;;;;;;;0.75;0.75;;;;;;;;;;5066091;28;20028;-82
2023/10/29 09:33:05;;;;;;;1.52;0.90;;;;;;;;;;5066487;28;20035;-84
2023/10/29 09:35:37;;;;;;;0.98;0.63;;;;;;;;;;5066415;28;20102;-86
2023/10/29 09:38:05;;;;;;;1.45;0.93;;;;;;;;;;5067341;28;20025;-85
2023/10/29 09:40:32;;;;;;;1.25;0.80;;;;;;;;;;5065872;28;20078;-85
2023/10/29 09:43:08;;;;;;;2.15;0.65;;;;;;;;;;5066389;28;20056;-85
2023/10/29 09:45:38;;;;;;;2.30;0.77;;;;;;;;;;5067509;28;20119;-87
2023/10/29 09:48:04;;;;;;;0.60;0.57;;;;;;;;;;5068949;28;20021;-84
2023/10/29 09:50:30;;;;;;;1.45;0.50;;;;;;;;;;5059902;28;20420;-85
2023/10/29 09:53:01;;;;;;;3.55;1.45;;;;;;;;;;5064186;28;20032;-82
2023/10/29 09:55:28;;;;;;;1.20;0.80;;;;;;;;;;5071174;28;20029;-84
2023/10/29 09:57:53;;;;;;;1.75;0.77;;;;;;;;;;5067917;28;20039;-83
2023/10/29 10:00:19;;;;;;;1.35;0.70;;;;;;;;;;5063952;28;20036;-84
2023/10/29 10:02:55;;;;;;;3.25;0.63;;;;;;;;;;5066118;28;20035;-83
2023/10/29 10:05:23;;;;;;;4.82;0.85;;;;;;;;;;5067328;28;20074;-84
2023/10/29 10:07:49;;;;;;;1.17;0.68;;;;;;;;;;5069033;28;20050;-84
2023/10/29 10:10:15;;;;;;;0.40;0.40;;;;;;;;;;5071237;28;20055;-83
2023/10/29 10:12:51;;;;;;;1.98;1.20;;;;;;;;;;5071453;28;20028;-82
2023/10/29 10:15:19;;;;;;;0.40;0.40;;;;;;;;;;5061838;28;20074;-84
2023/10/29 10:17:56;;;;;;;1.80;0.88;;;;;;;;;;5069351;28;20025;-85
2023/10/29 10:20:22;;;;;;;1.63;1.10;;;;;;;;;;5067528;28;20709;-84
2023/10/29 10:22:58;;;;;;;1.17;0.95;;;;;;;;;;5063139;28;20415;-85
2023/10/29 10:25:25;;;;;;;3.40;0.82;;;;;;;;;;5063888;28;20404;-84
2023/10/29 10:27:52;;;;;;;0.40;0.40;;;;;;;;;;5068057;28;20028;-82
2023/10/29 10:30:26;;;;;;;1.65;0.82;;;;;;;;;;5061914;28;20040;-83
2023/10/29 10:32:52;;;;;;;3.63;0.60;;;;;;;;;;5067949;28;20484;-84
2023/10/29 10:35:18;;;;;;;1.27;0.88;;;;;;;;;;5069296;28;20027;-84
2023/10/29 10:37:54;;;;;;;2.17;1.10;;;;;;;;;;5060646;28;20111;-85
2023/10/29 10:40:24;;;;;;;3.58;1.13;;;;;;;;;;5067259;28;20025;-85
2023/10/29 10:42:53;;;;;;;;;;;;;;;;;;5064356;28;20043;-84
2023/10/29 10:45:26;;;;;;;1.75;0.80;;;;;;;;;;5063302;28;20352;-85
2023/10/29 10:47:56;;;;;;;1.00;0.88;;;;;;;;;;5068041;28;20500;-83
2023/10/29 10:50:25;;;;;;;2.38;0.98;;;;;;;;;;5065304;28;20043;-83
2023/10/29 10:52:52;;;;;;;1.67;0.85;;;;;;;;;;5072491;28;20074;-84
2023/10/29 10:55:22;;;;;;;0.77;0.40;;;;;;;;;;5063288;28;20361;-85
2023/10/29 10:57:51;;;;;;;5.65;0.68;;;;;;;;;;5058817;28;20034;-86
2023/10/29 11:00:19;;;;;;;3.45;1.00;;;;;;;;;;5064711;28;20379;-84
2023/10/29 11:02:45;;;;;;;0.57;0.40;;;;;;;;;;5063770;28;20446;-85
2023/10/29 11:05:13;;;;;;;2.15;0.90;;;;;;;;;;5068622;28;20472;-85
2023/10/29 11:07:41;;;;;;;10.48;1.10;;;;;;;;;;5062047;28;20033;-83
2023/10/29 11:10:11;;;;;;;2.20;1.17;;;;;;;;;;5060189;28;20024;-84
2023/10/29 11:12:38;;;;;;;1.30;0.93;;;;;;;;;;5058335;28;20393;-83
2023/10/29 11:15:22;;;;;;;1.55;1.27;;;;;;;;;;5062992;28;20107;-83
2023/10/29 11:18:02;;;;;;;0.85;0.68;;;;;;;;;;5064396;28;20384;-85
2023/10/29 11:20:36;;;;;;;0.73;0.68;;;;;;;;;;5063176;28;20211;-84
2023/10/29 11:23:22;;;;;;;1.90;1.05;;;;;;;;;;5067314;28;20037;-86
2023/10/29 11:25:49;;;;;;;1.75;0.82;;;;;;;;;;5066685;28;20055;-83
2023/10/29 11:28:24;;;;;;;0.82;0.70;;;;;;;;;;5061125;28;20063;-84
2023/10/29 11:31:14;;;;;;;0.95;0.70;;;;;;;;;;5068153;28;20032;-84
2023/10/29 11:33:55;;;;;;;2.85;0.88;;;;;;;;;;5062702;28;20029;-84
2023/10/29 11:36:42;;;;;;;0.22;0.22;;;;;;;;;;5067216;28;20020;-85
2023/10/29 11:39:22;;;;;;;1.58;0.70;;;;;;;;;;5058606;28;20028;-82
2023/10/29 11:41:48;;;;;;;10.38;1.10;;;;;;;;;;5058804;28;20473;-84
2023/10/29 11:44:27;;;;;;;0.80;0.30;;;;;;;;;;5062265;28;20043;-85
2023/10/29 11:46:59;;;;;;;5.23;0.93;;;;;;;;;;5065267;28;20025;-84
2023/10/29 11:49:26;;;;;;;0.70;0.60;;;;;;;;;;5068792;28;20099;-84
2023/10/29 11:52:01;;;;;;;2.05;0.70;;;;;;;;;;5067368;28;20025;-86
2023/10/29 11:54:28;;;;;;;0.57;0.45;;;;;;;;;;5059396;28;20027;-85
2023/10/29 11:56:57;;;;;;;1.95;0.47;;;;;;;;;;5059824;28;20037;-83
2023/10/29 11:59:23;;;;;;;1.33;0.75;;;;;;;;;;5065066;28;20060;-85
2023/10/29 12:01:49;;;;;;;2.05;0.65;;;;;;;;;;5064473;28;20477;-86
2023/10/29 12:04:14;;;;;;;0.63;0.55;;;;;;;;;;5063572;28;20033;-85
2023/10/29 12:06:46;;;;;;;0.40;0.40;;;;;;;;;;5070293;28;20020;-85
2023/10/29 12:09:21;;;;;;;0.95;0.88;;;;;;;;;;5061010;28;20033;-84
2023/10/29 12:11:54;;;;;;;0.70;0.30;;;;;;;;;;5063728;28;20022;-85
2023/10/29 12:14:39;;;;;;;1.70;0.60;;;;;;;;;;5061122;28;20128;-84
2023/10/29 12:17:05;;;;;;;1.02;0.47;;;;;;;;;;5062696;28;20100;-86
2023/10/29 12:19:35;;;;;;;1.35;0.50;;;;;;;;;;5066568;28;20120;-87
2023/10/29 12:22:00;;;;;;;0.38;0.38;;;;;;;;;;5062317;28;20063;-84
2023/10/29 12:24:26;;;;;;;0.63;0.60;;;;;;;;;;5062856;28;20029;-83
2023/10/29 12:26:52;;;;;;;1.65;0.50;;;;;;;;;;5063235;28;20020;-85
2023/10/29 12:29:18;;;;;;;1.17;0.50;;;;;;;;;;5061955;28;20060;-85
2023/10/29 12:31:47;;;;;;;0.65;0.57;;;;;;;;;;5066046;28;21416;-84
2023/10/29 12:34:12;;;;;;;0.47;0.30;;;;;;;;;;5062269;28;20118;-85
2023/10/29 12:36:38;;;;;;;0.98;0.60;;;;;;;;;;5067440;28;20029;-86
2023/10/29 12:39:04;;;;;;;0.70;0.60;;;;;;;;;;5058529;28;20086;-86
2023/10/29 12:41:31;;;;;;;1.10;0.55;;;;;;;;;;5055145;28;20023;-85
2023/10/29 12:43:57;;;;;;;1.00;0.43;;;;;;;;;;5057692;28;20431;-83
2023/10/29 12:46:26;;;;;;;1.00;0.50;;;;;;;;;;5050686;28;20048;-84
2023/10/29 12:49:00;;;;;;;0.83;0.77;;;;;;;;;;5050722;28;20036;-86
2023/10/29 12:51:37;;;;;;;1.38;0.75;;;;;;;;;;5055769;28;20103;-85
2023/10/29 12:54:14;;;;;;;1.00;0.45;;;;;;;;;;5049785;28;20448;-84
2023/10/29 12:56:52;;;;;;;4.45;0.90;;;;;;;;;;5063686;28;20094;-86
2023/10/29 12:59:21;;;;;;;1.48;0.50;;;;;;;;;;5057655;28;20037;-85
2023/10/29 13:02:05;;;;;;;1.88;0.77;;;;;;;;;;5058001;28;20082;-83
2023/10/29 13:04:30;;;;;;;1.95;0.77;;;;;;;;;;5065058;28;20078;-84
2023/10/29 13:06:57;;;;;;;19.48;8.50;;;;;;;;;;5057539;28;20415;-84
2023/10/29 13:09:28;;;;;;;1.58;0.93;;;;;;;;;;5054767;28;20183;-84
2023/10/29 13:11:54;;;;;;;1.75;0.65;;;;;;;;;;5060743;28;20032;-84
2023/10/29 13:14:24;;;;;;;1.27;0.63;;;;;;;;;;5060555;28;20481;-82
2023/10/29 13:16:53;;;;;;;1.65;0.73;;;;;;;;;;5060318;28;20107;-83
2023/10/29 13:19:23;;;;;;;1.02;0.63;;;;;;;;;;5063685;28;20025;-83
2023/10/29 13:21:51;;;;;;;1.10;0.68;;;;;;;;;;5062043;28;20029;-84
2023/10/29 13:24:16;;;;;;;0.98;0.47;;;;;;;;;;5063295;28;20033;-81
2023/10/29 13:26:42;;;;;;;1.50;0.60;;;;;;;;;;5064236;28;20059;-83
2023/10/29 13:29:07;;;;;;;0.50;0.30;;;;;;;;;;5059938;28;20074;-83
2023/10/29 13:31:33;;;;;;;0.60;0.47;;;;;;;;;;5058857;28;20124;-83
2023/10/29 13:33:59;;;;;;;1.58;1.00;;;;;;;;;;5060144;28;20028;-83
2023/10/29 13:36:24;;;;;;;1.85;0.93;;;;;;;;;;5061336;28;20059;-82
2023/10/29 13:38:50;;;;;;;1.05;0.70;;;;;;;;;;5064079;28;20029;-82
2023/10/29 13:41:15;;;;;;;0.95;0.60;;;;;;;;;;5061956;28;20032;-82
2023/10/29 13:43:42;;;;;;;3.97;0.70;;;;;;;;;;5068191;28;20024;-84
2023/10/29 13:46:08;;;;;;;1.88;0.80;;;;;;;;;;5058444;28;20032;-83
2023/10/29 13:48:33;;;;;;;0.70;0.70;;;;;;;;;;5065151;28;20033;-82
2023/10/29 13:51:06;;;;;;;2.78;0.60;;;;;;;;;;5054224;28;20579;-81
2023/10/29 13:53:33;;;;;;;1.23;0.57;;;;;;;;;;5055418;28;20112;-83
2023/10/29 13:56:05;;;;;;;0.50;0.50;;;;;;;;;;5067019;28;20031;-82
2023/10/29 13:58:31;;;;;;;1.33;0.57;;;;;;;;;;5064282;28;20025;-82
2023/10/29 14:00:56;;;;;;;1.92;1.00;;;;;;;;;;5061126;28;20042;-82
2023/10/29 14:03:23;;;;;;;5.38;2.15;;;;;;;;;;5054041;28;20385;-83
2023/10/29 14:05:49;;;;;;;3.00;1.30;;;;;;;;;;5056125;28;20028;-85
2023/10/29 14:08:15;;;;;;;1.15;1.05;;;;;;;;;;5060712;28;20025;-83
2023/10/29 14:10:40;;;;;;;2.28;1.17;;;;;;;;;;5055724;28;20056;-83
2023/10/29 14:13:05;;;;;;;2.40;1.00;;;;;;;;;;5056787;28;20032;-84
2023/10/29 14:15:31;;;;;;;1.60;0.85;;;;;;;;;;5063535;28;20033;-84
2023/10/29 14:17:57;;;;;;;0.88;0.80;;;;;;;;;;5064998;28;20020;-85
2023/10/29 14:20:23;;;;;;;1.77;1.05;;;;;;;;;;5055831;28;20082;-82
2023/10/29 14:22:48;;;;;;;3.45;1.25;;;;;;;;;;5053580;28;20489;-83
2023/10/29 14:25:15;;;;;;;0.60;0.60;;;;;;;;;;5063960;28;20029;-83
2023/10/29 14:27:41;;;;;;;3.05;0.77;;;;;;;;;;5064370;28;20460;-84
2023/10/29 14:30:07;;;;;;;1.25;1.02;;;;;;;;;;5057907;28;20048;-83
2023/10/29 14:32:33;;;;;;;2.90;0.65;;;;;;;;;;5059881;28;20032;-81
2023/10/29 14:34:58;;;;;;;0.90;0.75;;;;;;;;;;5057531;28;20020;-83
2023/10/29 14:37:23;;;;;;;0.82;0.65;;;;;;;;;;5057562;28;20025;-83
2023/10/29 14:39:49;;;;;;;0.52;0.52;;;;;;;;;;5059624;28;20495;-84
2023/10/29 14:42:14;;;;;;;2.45;1.00;;;;;;;;;;5066074;28;20028;-83
2023/10/29 14:44:40;;;;;;;1.35;0.70;;;;;;;;;;5053336;28;20807;-84
2023/10/29 14:47:05;;;;;;;2.03;0.55;;;;;;;;;;5058292;28;20098;-84
2023/10/29 14:49:31;;;;;;;1.15;0.63;;;;;;;;;;5053859;28;20036;-83
2023/10/29 14:51:56;;;;;;;1.17;0.68;;;;;;;;;;5054175;28;20409;-82
